Dolna Mitropoliya Air Base


Codes: LBPL/PVN
Name: Dolna Mitropoliya Air Base
City: Dolna Mitropoliya
Country: Bulgaria
Elevation: 330 ft.

Photos at Dolna Mitropoliya Air Base


   Photos courtesy of SpottingLog. You can add your own sightings and photos by signing up for a free trial today.



No photos found.

Weather at Dolna Mitropoliya Air Base


Time (UTC)DescriptionTempratureWindCloud coverageVisibilityPressureHumidity
18-Apr-2024 00:00Light Rain8°C7 mph, W100%10000m1003hPa87%
18-Apr-2024 03:00Overcast Clouds8°C11 mph, W100%10000m1003hPa85%
18-Apr-2024 06:00Overcast Clouds8°C16 mph, W99%10000m1004hPa77%
18-Apr-2024 09:00Overcast Clouds13°C18 mph, W100%10000m1005hPa50%
18-Apr-2024 12:00Light Rain12°C20 mph, NW100%10000m1006hPa55%
18-Apr-2024 15:00Broken Clouds14°C18 mph, NW54%10000m1007hPa52%
18-Apr-2024 18:00Scattered Clouds10°C18 mph, NW29%10000m1010hPa60%
18-Apr-2024 21:00Few Clouds8°C13 mph, W15%10000m1012hPa69%
19-Apr-2024 00:00Few Clouds6°C7 mph, W23%10000m1013hPa75%
19-Apr-2024 03:00Scattered Clouds5°C7 mph, SW46%10000m1014hPa80%
19-Apr-2024 06:00Few Clouds9°C9 mph, W23%10000m1015hPa64%
19-Apr-2024 09:00Broken Clouds13°C9 mph, NW63%10000m1015hPa48%
19-Apr-2024 12:00Broken Clouds15°C4 mph, NW76%10000m1013hPa39%
19-Apr-2024 15:00Overcast Clouds15°C0 mph, S86%10000m1012hPa38%
19-Apr-2024 18:00Broken Clouds10°C4 mph, SE83%10000m1012hPa57%
19-Apr-2024 21:00Broken Clouds9°C4 mph, SE79%10000m1011hPa71%
20-Apr-2024 00:00Broken Clouds9°C2 mph, NE81%10000m1010hPa72%
20-Apr-2024 03:00Overcast Clouds8°C2 mph, E92%10000m1010hPa75%
20-Apr-2024 06:00Overcast Clouds11°C4 mph, NE95%10000m1011hPa62%
20-Apr-2024 09:00Broken Clouds15°C11 mph, NE57%10000m1011hPa47%
20-Apr-2024 12:00Scattered Clouds17°C9 mph, NE47%10000m1010hPa41%
20-Apr-2024 15:00Broken Clouds16°C11 mph, E55%10000m1009hPa42%
20-Apr-2024 18:00Scattered Clouds11°C7 mph, E35%10000m1011hPa59%
20-Apr-2024 21:00Clear Sky9°C7 mph, E4%10000m1011hPa67%
21-Apr-2024 00:00Scattered Clouds8°C7 mph, SE44%10000m1010hPa69%
21-Apr-2024 03:00Overcast Clouds9°C2 mph, E100%10000m1011hPa64%
21-Apr-2024 06:00Overcast Clouds11°C4 mph, SE100%10000m1011hPa62%
21-Apr-2024 09:00Overcast Clouds15°C9 mph, SE95%10000m1010hPa48%
21-Apr-2024 12:00Broken Clouds16°C13 mph, E77%10000m1008hPa55%
21-Apr-2024 15:00Light Rain14°C2 mph, SE99%10000m1008hPa75%
21-Apr-2024 18:00Moderate Rain10°C7 mph, S99%10000m1009hPa90%
21-Apr-2024 21:00Light Rain9°C4 mph, W100%10000m1009hPa91%
22-Apr-2024 00:00Overcast Clouds9°C4 mph, W100%10000m1010hPa91%
22-Apr-2024 03:00Light Rain8°C4 mph, W100%10000m1011hPa96%
22-Apr-2024 06:00Overcast Clouds11°C7 mph, NW96%10000m1013hPa83%
22-Apr-2024 09:00Light Rain13°C13 mph, NW59%10000m1014hPa68%
22-Apr-2024 12:00Light Rain15°C13 mph, NW64%10000m1015hPa54%
22-Apr-2024 15:00Overcast Clouds15°C9 mph, NW90%10000m1016hPa55%
22-Apr-2024 18:00Broken Clouds9°C4 mph, NW58%10000m1019hPa75%
22-Apr-2024 21:00Overcast Clouds7°C2 mph, W100%10000m1020hPa77%